sensor_id;sensor_type;location;lat;lon;timestamp;P1;durP1;ratioP1;P2;durP2;ratioP2
2476;SDS011;1249;51.270;6.756;2023-04-09T00:01:07;26.90;;;19.73;;
2476;SDS011;1249;51.270;6.756;2023-04-09T00:03:34;29.30;;;19.90;;
2476;SDS011;1249;51.270;6.756;2023-04-09T00:06:01;26.20;;;20.37;;
2476;SDS011;1249;51.270;6.756;2023-04-09T00:08:27;24.67;;;19.33;;
2476;SDS011;1249;51.270;6.756;2023-04-09T00:10:53;29.30;;;20.60;;
2476;SDS011;1249;51.270;6.756;2023-04-09T00:13:19;33.93;;;22.67;;
2476;SDS011;1249;51.270;6.756;2023-04-09T00:15:45;26.73;;;19.43;;
2476;SDS011;1249;51.270;6.756;2023-04-09T00:18:12;28.57;;;22.10;;
2476;SDS011;1249;51.270;6.756;2023-04-09T00:20:38;25.20;;;19.60;;
2476;SDS011;1249;51.270;6.756;2023-04-09T00:23:04;26.77;;;18.97;;
2476;SDS011;1249;51.270;6.756;2023-04-09T00:25:30;26.37;;;19.57;;
2476;SDS011;1249;51.270;6.756;2023-04-09T00:27:55;26.67;;;20.27;;
2476;SDS011;1249;51.270;6.756;2023-04-09T00:30:21;26.57;;;19.00;;
2476;SDS011;1249;51.270;6.756;2023-04-09T00:32:47;29.30;;;20.70;;
2476;SDS011;1249;51.270;6.756;2023-04-09T00:35:13;29.87;;;20.80;;
2476;SDS011;1249;51.270;6.756;2023-04-09T00:37:40;27.90;;;21.40;;
2476;SDS011;1249;51.270;6.756;2023-04-09T00:40:06;28.53;;;19.00;;
2476;SDS011;1249;51.270;6.756;2023-04-09T00:42:32;24.47;;;18.13;;
2476;SDS011;1249;51.270;6.756;2023-04-09T00:44:58;26.93;;;21.23;;
2476;SDS011;1249;51.270;6.756;2023-04-09T00:47:25;28.53;;;20.70;;
2476;SDS011;1249;51.270;6.756;2023-04-09T00:49:52;25.37;;;18.90;;
2476;SDS011;1249;51.270;6.756;2023-04-09T00:52:18;20.20;;;17.23;;
2476;SDS011;1249;51.270;6.756;2023-04-09T00:54:45;26.33;;;19.20;;
2476;SDS011;1249;51.270;6.756;2023-04-09T00:57:11;26.83;;;20.17;;
2476;SDS011;1249;51.270;6.756;2023-04-09T00:59:37;27.73;;;20.83;;
2476;SDS011;1249;51.270;6.756;2023-04-09T01:02:02;25.03;;;18.57;;
2476;SDS011;1249;51.270;6.756;2023-04-09T01:04:28;25.80;;;19.50;;
2476;SDS011;1249;51.270;6.756;2023-04-09T01:09:38;24.60;;;20.20;;
2476;SDS011;1249;51.270;6.756;2023-04-09T01:12:17;24.40;;;19.90;;
2476;SDS011;1249;51.270;6.756;2023-04-09T01:20:46;23.30;;;19.30;;
2476;SDS011;1249;51.270;6.756;2023-04-09T01:28:43;24.60;;;19.00;;
2476;SDS011;1249;51.270;6.756;2023-04-09T01:31:12;27.17;;;20.03;;
2476;SDS011;1249;51.270;6.756;2023-04-09T01:33:43;24.27;;;19.40;;
2476;SDS011;1249;51.270;6.756;2023-04-09T01:36:09;26.07;;;18.50;;
2476;SDS011;1249;51.270;6.756;2023-04-09T01:38:36;26.20;;;18.70;;
2476;SDS011;1249;51.270;6.756;2023-04-09T01:41:06;26.60;;;18.80;;
2476;SDS011;1249;51.270;6.756;2023-04-09T01:43:33;23.47;;;18.20;;
2476;SDS011;1249;51.270;6.756;2023-04-09T01:46:01;26.73;;;20.53;;
2476;SDS011;1249;51.270;6.756;2023-04-09T01:48:28;26.43;;;19.20;;
2476;SDS011;1249;51.270;6.756;2023-04-09T01:50:55;30.10;;;20.33;;
2476;SDS011;1249;51.270;6.756;2023-04-09T01:53:22;28.73;;;20.53;;
2476;SDS011;1249;51.270;6.756;2023-04-09T01:55:47;25.50;;;19.27;;
2476;SDS011;1249;51.270;6.756;2023-04-09T01:58:13;24.30;;;19.00;;
2476;SDS011;1249;51.270;6.756;2023-04-09T02:00:39;30.93;;;20.50;;
2476;SDS011;1249;51.270;6.756;2023-04-09T02:03:17;25.60;;;18.57;;
2476;SDS011;1249;51.270;6.756;2023-04-09T02:05:52;26.67;;;19.90;;
2476;SDS011;1249;51.270;6.756;2023-04-09T02:08:28;28.40;;;20.07;;
2476;SDS011;1249;51.270;6.756;2023-04-09T02:10:57;25.77;;;19.67;;
2476;SDS011;1249;51.270;6.756;2023-04-09T02:13:24;25.57;;;18.93;;
2476;SDS011;1249;51.270;6.756;2023-04-09T02:15:51;24.00;;;19.37;;
2476;SDS011;1249;51.270;6.756;2023-04-09T02:18:22;26.80;;;18.60;;
2476;SDS011;1249;51.270;6.756;2023-04-09T02:20:48;25.90;;;18.97;;
2476;SDS011;1249;51.270;6.756;2023-04-09T02:23:15;23.17;;;18.00;;
2476;SDS011;1249;51.270;6.756;2023-04-09T02:25:40;27.37;;;19.30;;
2476;SDS011;1249;51.270;6.756;2023-04-09T02:28:06;30.57;;;20.00;;
2476;SDS011;1249;51.270;6.756;2023-04-09T02:30:32;27.03;;;19.93;;
2476;SDS011;1249;51.270;6.756;2023-04-09T02:32:57;27.40;;;21.90;;
2476;SDS011;1249;51.270;6.756;2023-04-09T02:35:23;25.80;;;19.50;;
2476;SDS011;1249;51.270;6.756;2023-04-09T02:37:49;28.90;;;19.27;;
2476;SDS011;1249;51.270;6.756;2023-04-09T02:40:14;27.07;;;20.27;;
2476;SDS011;1249;51.270;6.756;2023-04-09T02:42:40;24.97;;;18.97;;
2476;SDS011;1249;51.270;6.756;2023-04-09T02:45:05;24.80;;;19.00;;
2476;SDS011;1249;51.270;6.756;2023-04-09T02:47:31;23.47;;;18.73;;
2476;SDS011;1249;51.270;6.756;2023-04-09T02:49:57;28.70;;;18.47;;
2476;SDS011;1249;51.270;6.756;2023-04-09T02:52:22;24.93;;;18.60;;
2476;SDS011;1249;51.270;6.756;2023-04-09T02:54:49;26.20;;;17.93;;
2476;SDS011;1249;51.270;6.756;2023-04-09T02:57:16;21.60;;;18.07;;
2476;SDS011;1249;51.270;6.756;2023-04-09T02:59:42;24.37;;;19.10;;
2476;SDS011;1249;51.270;6.756;2023-04-09T03:02:08;24.43;;;18.63;;
2476;SDS011;1249;51.270;6.756;2023-04-09T03:04:34;27.07;;;19.53;;
2476;SDS011;1249;51.270;6.756;2023-04-09T03:06:59;30.37;;;18.73;;
2476;SDS011;1249;51.270;6.756;2023-04-09T03:09:25;26.47;;;18.97;;
2476;SDS011;1249;51.270;6.756;2023-04-09T03:11:51;25.53;;;18.33;;
2476;SDS011;1249;51.270;6.756;2023-04-09T03:14:16;22.80;;;19.10;;
2476;SDS011;1249;51.270;6.756;2023-04-09T03:16:42;24.87;;;18.70;;
2476;SDS011;1249;51.270;6.756;2023-04-09T03:19:07;25.93;;;19.60;;
2476;SDS011;1249;51.270;6.756;2023-04-09T03:21:33;25.53;;;19.07;;
2476;SDS011;1249;51.270;6.756;2023-04-09T03:23:58;24.10;;;19.27;;
2476;SDS011;1249;51.270;6.756;2023-04-09T03:26:24;23.13;;;17.90;;
2476;SDS011;1249;51.270;6.756;2023-04-09T03:28:49;21.37;;;17.50;;
2476;SDS011;1249;51.270;6.756;2023-04-09T03:31:15;26.67;;;19.67;;
2476;SDS011;1249;51.270;6.756;2023-04-09T03:33:41;21.53;;;16.93;;
2476;SDS011;1249;51.270;6.756;2023-04-09T03:36:06;23.03;;;18.87;;
2476;SDS011;1249;51.270;6.756;2023-04-09T03:38:32;25.33;;;17.83;;
2476;SDS011;1249;51.270;6.756;2023-04-09T03:40:58;20.67;;;18.47;;
2476;SDS011;1249;51.270;6.756;2023-04-09T03:43:23;25.03;;;19.27;;
2476;SDS011;1249;51.270;6.756;2023-04-09T03:45:49;23.87;;;17.90;;
2476;SDS011;1249;51.270;6.756;2023-04-09T03:48:15;24.30;;;18.10;;
2476;SDS011;1249;51.270;6.756;2023-04-09T03:50:40;25.60;;;17.83;;
2476;SDS011;1249;51.270;6.756;2023-04-09T03:53:06;24.90;;;18.20;;
2476;SDS011;1249;51.270;6.756;2023-04-09T03:55:32;21.77;;;18.03;;
2476;SDS011;1249;51.270;6.756;2023-04-09T03:57:57;22.90;;;17.33;;
2476;SDS011;1249;51.270;6.756;2023-04-09T04:00:23;26.73;;;18.90;;
2476;SDS011;1249;51.270;6.756;2023-04-09T04:02:49;22.67;;;18.00;;
2476;SDS011;1249;51.270;6.756;2023-04-09T04:05:15;22.47;;;16.33;;
2476;SDS011;1249;51.270;6.756;2023-04-09T04:07:41;20.50;;;16.40;;
2476;SDS011;1249;51.270;6.756;2023-04-09T04:10:08;18.80;;;16.07;;
2476;SDS011;1249;51.270;6.756;2023-04-09T04:12:34;22.40;;;16.47;;
2476;SDS011;1249;51.270;6.756;2023-04-09T04:15:00;23.57;;;17.90;;
2476;SDS011;1249;51.270;6.756;2023-04-09T04:17:26;20.87;;;17.57;;
2476;SDS011;1249;51.270;6.756;2023-04-09T04:19:51;25.30;;;18.57;;
2476;SDS011;1249;51.270;6.756;2023-04-09T04:22:17;22.70;;;16.50;;
2476;SDS011;1249;51.270;6.756;2023-04-09T04:24:42;28.77;;;19.37;;
2476;SDS011;1249;51.270;6.756;2023-04-09T04:27:08;24.43;;;17.63;;
2476;SDS011;1249;51.270;6.756;2023-04-09T04:29:33;22.47;;;18.63;;
2476;SDS011;1249;51.270;6.756;2023-04-09T04:31:59;21.20;;;16.23;;
2476;SDS011;1249;51.270;6.756;2023-04-09T04:34:25;22.90;;;17.00;;
2476;SDS011;1249;51.270;6.756;2023-04-09T04:36:50;18.77;;;16.30;;
2476;SDS011;1249;51.270;6.756;2023-04-09T04:39:16;23.97;;;17.07;;
2476;SDS011;1249;51.270;6.756;2023-04-09T04:41:41;22.37;;;16.30;;
2476;SDS011;1249;51.270;6.756;2023-04-09T04:44:07;19.00;;;15.67;;
2476;SDS011;1249;51.270;6.756;2023-04-09T04:46:32;20.83;;;16.60;;
2476;SDS011;1249;51.270;6.756;2023-04-09T04:48:58;20.23;;;15.43;;
2476;SDS011;1249;51.270;6.756;2023-04-09T04:51:23;21.23;;;16.20;;
2476;SDS011;1249;51.270;6.756;2023-04-09T04:53:51;21.40;;;16.40;;
2476;SDS011;1249;51.270;6.756;2023-04-09T04:56:16;19.47;;;16.20;;
2476;SDS011;1249;51.270;6.756;2023-04-09T04:58:42;23.30;;;16.40;;
2476;SDS011;1249;51.270;6.756;2023-04-09T05:01:08;21.00;;;15.60;;
2476;SDS011;1249;51.270;6.756;2023-04-09T05:03:33;20.80;;;15.40;;
2476;SDS011;1249;51.270;6.756;2023-04-09T05:05:59;18.70;;;15.70;;
2476;SDS011;1249;51.270;6.756;2023-04-09T05:08:25;22.47;;;15.53;;
2476;SDS011;1249;51.270;6.756;2023-04-09T05:13:35;20.23;;;15.57;;
2476;SDS011;1249;51.270;6.756;2023-04-09T05:16:03;20.20;;;15.40;;
2476;SDS011;1249;51.270;6.756;2023-04-09T05:18:29;22.83;;;16.50;;
2476;SDS011;1249;51.270;6.756;2023-04-09T05:20:56;18.63;;;15.37;;
2476;SDS011;1249;51.270;6.756;2023-04-09T05:23:22;20.33;;;14.50;;
2476;SDS011;1249;51.270;6.756;2023-04-09T05:25:47;21.83;;;16.10;;
2476;SDS011;1249;51.270;6.756;2023-04-09T05:28:14;20.40;;;15.40;;
2476;SDS011;1249;51.270;6.756;2023-04-09T05:30:40;19.97;;;15.50;;
2476;SDS011;1249;51.270;6.756;2023-04-09T05:33:10;19.67;;;15.27;;
2476;SDS011;1249;51.270;6.756;2023-04-09T05:35:39;16.73;;;14.10;;
2476;SDS011;1249;51.270;6.756;2023-04-09T05:38:04;20.10;;;16.37;;
2476;SDS011;1249;51.270;6.756;2023-04-09T05:40:30;19.80;;;15.80;;
2476;SDS011;1249;51.270;6.756;2023-04-09T05:42:55;19.70;;;17.60;;
2476;SDS011;1249;51.270;6.756;2023-04-09T05:45:21;17.90;;;15.60;;
2476;SDS011;1249;51.270;6.756;2023-04-09T05:47:47;21.10;;;15.03;;
2476;SDS011;1249;51.270;6.756;2023-04-09T05:50:12;21.80;;;15.47;;
2476;SDS011;1249;51.270;6.756;2023-04-09T05:52:38;19.67;;;16.20;;
2476;SDS011;1249;51.270;6.756;2023-04-09T05:55:03;17.63;;;15.70;;
2476;SDS011;1249;51.270;6.756;2023-04-09T05:57:30;16.37;;;13.60;;
2476;SDS011;1249;51.270;6.756;2023-04-09T05:59:56;18.60;;;15.03;;
2476;SDS011;1249;51.270;6.756;2023-04-09T06:02:23;19.40;;;15.53;;
2476;SDS011;1249;51.270;6.756;2023-04-09T06:04:49;18.20;;;15.60;;
2476;SDS011;1249;51.270;6.756;2023-04-09T06:07:15;18.20;;;14.17;;
2476;SDS011;1249;51.270;6.756;2023-04-09T06:09:41;17.07;;;15.30;;
2476;SDS011;1249;51.270;6.756;2023-04-09T06:12:10;16.80;;;14.67;;
2476;SDS011;1249;51.270;6.756;2023-04-09T06:14:37;19.80;;;15.37;;
2476;SDS011;1249;51.270;6.756;2023-04-09T06:17:03;17.90;;;15.63;;
2476;SDS011;1249;51.270;6.756;2023-04-09T06:19:28;24.07;;;16.63;;
2476;SDS011;1249;51.270;6.756;2023-04-09T06:21:54;19.90;;;15.90;;
2476;SDS011;1249;51.270;6.756;2023-04-09T06:24:19;20.73;;;15.70;;
2476;SDS011;1249;51.270;6.756;2023-04-09T06:26:45;20.10;;;15.53;;
2476;SDS011;1249;51.270;6.756;2023-04-09T06:29:11;17.90;;;15.67;;
2476;SDS011;1249;51.270;6.756;2023-04-09T06:31:36;20.47;;;15.33;;
2476;SDS011;1249;51.270;6.756;2023-04-09T06:34:02;17.40;;;14.27;;
2476;SDS011;1249;51.270;6.756;2023-04-09T06:36:27;23.70;;;15.63;;
2476;SDS011;1249;51.270;6.756;2023-04-09T06:38:54;19.83;;;16.00;;
2476;SDS011;1249;51.270;6.756;2023-04-09T06:41:20;16.87;;;14.70;;
2476;SDS011;1249;51.270;6.756;2023-04-09T06:43:47;19.37;;;13.83;;
2476;SDS011;1249;51.270;6.756;2023-04-09T06:46:13;20.43;;;14.53;;
2476;SDS011;1249;51.270;6.756;2023-04-09T06:48:41;18.67;;;13.80;;
2476;SDS011;1249;51.270;6.756;2023-04-09T06:51:08;16.93;;;14.47;;
2476;SDS011;1249;51.270;6.756;2023-04-09T06:53:37;19.63;;;12.30;;
2476;SDS011;1249;51.270;6.756;2023-04-09T06:56:03;15.37;;;11.60;;
2476;SDS011;1249;51.270;6.756;2023-04-09T06:58:29;17.27;;;12.50;;
2476;SDS011;1249;51.270;6.756;2023-04-09T07:00:55;12.67;;;9.77;;
2476;SDS011;1249;51.270;6.756;2023-04-09T07:03:21;14.60;;;10.67;;
2476;SDS011;1249;51.270;6.756;2023-04-09T07:05:46;13.07;;;9.33;;
2476;SDS011;1249;51.270;6.756;2023-04-09T07:08:12;11.67;;;9.33;;
2476;SDS011;1249;51.270;6.756;2023-04-09T07:10:38;13.57;;;10.13;;
2476;SDS011;1249;51.270;6.756;2023-04-09T07:13:04;12.47;;;9.83;;
2476;SDS011;1249;51.270;6.756;2023-04-09T07:15:30;14.07;;;10.00;;
2476;SDS011;1249;51.270;6.756;2023-04-09T07:17:56;14.13;;;10.83;;
2476;SDS011;1249;51.270;6.756;2023-04-09T07:20:21;11.40;;;9.30;;
2476;SDS011;1249;51.270;6.756;2023-04-09T07:22:47;13.50;;;10.10;;
2476;SDS011;1249;51.270;6.756;2023-04-09T07:25:13;12.13;;;10.03;;
2476;SDS011;1249;51.270;6.756;2023-04-09T07:27:39;11.50;;;9.00;;
2476;SDS011;1249;51.270;6.756;2023-04-09T07:30:06;12.33;;;9.77;;
2476;SDS011;1249;51.270;6.756;2023-04-09T07:32:32;11.13;;;9.73;;
2476;SDS011;1249;51.270;6.756;2023-04-09T07:34:58;11.30;;;8.73;;
2476;SDS011;1249;51.270;6.756;2023-04-09T07:37:23;9.90;;;8.30;;
2476;SDS011;1249;51.270;6.756;2023-04-09T07:39:49;10.87;;;9.37;;
2476;SDS011;1249;51.270;6.756;2023-04-09T07:42:15;11.20;;;9.03;;
2476;SDS011;1249;51.270;6.756;2023-04-09T07:44:41;10.23;;;7.30;;
2476;SDS011;1249;51.270;6.756;2023-04-09T07:47:07;9.17;;;8.20;;
2476;SDS011;1249;51.270;6.756;2023-04-09T07:49:36;11.40;;;9.10;;
2476;SDS011;1249;51.270;6.756;2023-04-09T07:52:02;11.40;;;8.77;;
2476;SDS011;1249;51.270;6.756;2023-04-09T07:54:29;18.53;;;16.40;;
2476;SDS011;1249;51.270;6.756;2023-04-09T07:56:55;26.57;;;19.27;;
2476;SDS011;1249;51.270;6.756;2023-04-09T07:59:21;26.77;;;21.20;;
2476;SDS011;1249;51.270;6.756;2023-04-09T08:01:48;19.37;;;14.90;;
2476;SDS011;1249;51.270;6.756;2023-04-09T08:04:13;11.20;;;8.83;;
2476;SDS011;1249;51.270;6.756;2023-04-09T08:06:39;9.20;;;8.00;;
2476;SDS011;1249;51.270;6.756;2023-04-09T08:09:05;9.57;;;7.00;;
2476;SDS011;1249;51.270;6.756;2023-04-09T08:11:31;11.83;;;10.17;;
2476;SDS011;1249;51.270;6.756;2023-04-09T08:13:56;12.07;;;8.57;;
2476;SDS011;1249;51.270;6.756;2023-04-09T08:16:22;9.97;;;8.30;;
2476;SDS011;1249;51.270;6.756;2023-04-09T08:18:51;10.10;;;7.50;;
2476;SDS011;1249;51.270;6.756;2023-04-09T08:21:17;13.30;;;8.13;;
2476;SDS011;1249;51.270;6.756;2023-04-09T08:23:42;10.87;;;8.67;;
2476;SDS011;1249;51.270;6.756;2023-04-09T08:26:08;11.53;;;8.43;;
2476;SDS011;1249;51.270;6.756;2023-04-09T08:28:34;9.83;;;7.87;;
2476;SDS011;1249;51.270;6.756;2023-04-09T08:30:59;8.53;;;6.80;;
2476;SDS011;1249;51.270;6.756;2023-04-09T08:33:25;8.20;;;7.33;;
2476;SDS011;1249;51.270;6.756;2023-04-09T08:35:51;11.30;;;8.00;;
2476;SDS011;1249;51.270;6.756;2023-04-09T08:38:17;9.23;;;7.97;;
2476;SDS011;1249;51.270;6.756;2023-04-09T08:40:43;11.07;;;8.23;;
2476;SDS011;1249;51.270;6.756;2023-04-09T08:43:09;10.60;;;8.00;;
2476;SDS011;1249;51.270;6.756;2023-04-09T08:45:40;9.77;;;7.50;;
2476;SDS011;1249;51.270;6.756;2023-04-09T08:48:07;16.27;;;14.70;;
2476;SDS011;1249;51.270;6.756;2023-04-09T08:50:34;18.67;;;16.23;;
2476;SDS011;1249;51.270;6.756;2023-04-09T08:53:01;11.17;;;8.33;;
2476;SDS011;1249;51.270;6.756;2023-04-09T08:55:28;9.90;;;8.27;;
2476;SDS011;1249;51.270;6.756;2023-04-09T08:57:55;12.60;;;11.30;;
2476;SDS011;1249;51.270;6.756;2023-04-09T09:00:22;9.73;;;8.67;;
2476;SDS011;1249;51.270;6.756;2023-04-09T09:03:09;9.63;;;8.10;;
2476;SDS011;1249;51.270;6.756;2023-04-09T09:05:40;9.50;;;7.30;;
2476;SDS011;1249;51.270;6.756;2023-04-09T09:08:08;8.37;;;7.50;;
2476;SDS011;1249;51.270;6.756;2023-04-09T09:10:41;11.07;;;7.47;;
2476;SDS011;1249;51.270;6.756;2023-04-09T09:13:15;8.20;;;7.40;;
2476;SDS011;1249;51.270;6.756;2023-04-09T09:15:49;9.63;;;8.10;;
2476;SDS011;1249;51.270;6.756;2023-04-09T09:18:19;10.13;;;7.93;;
2476;SDS011;1249;51.270;6.756;2023-04-09T09:23:39;9.47;;;7.43;;
2476;SDS011;1249;51.270;6.756;2023-04-09T09:26:13;7.97;;;7.17;;
2476;SDS011;1249;51.270;6.756;2023-04-09T09:28:43;9.47;;;7.00;;
2476;SDS011;1249;51.270;6.756;2023-04-09T09:31:13;8.47;;;7.57;;
2476;SDS011;1249;51.270;6.756;2023-04-09T09:33:39;8.20;;;7.20;;
2476;SDS011;1249;51.270;6.756;2023-04-09T09:36:05;7.90;;;7.07;;
2476;SDS011;1249;51.270;6.756;2023-04-09T09:38:33;7.50;;;6.70;;
2476;SDS011;1249;51.270;6.756;2023-04-09T09:41:15;7.90;;;6.80;;
2476;SDS011;1249;51.270;6.756;2023-04-09T09:43:44;9.30;;;8.40;;
2476;SDS011;1249;51.270;6.756;2023-04-09T09:46:10;10.03;;;9.00;;
2476;SDS011;1249;51.270;6.756;2023-04-09T09:48:36;10.07;;;7.63;;
2476;SDS011;1249;51.270;6.756;2023-04-09T09:51:03;10.53;;;6.37;;
2476;SDS011;1249;51.270;6.756;2023-04-09T09:53:34;9.50;;;6.50;;
2476;SDS011;1249;51.270;6.756;2023-04-09T09:56:00;6.27;;;5.67;;
2476;SDS011;1249;51.270;6.756;2023-04-09T09:59:15;7.80;;;5.17;;
2476;SDS011;1249;51.270;6.756;2023-04-09T10:01:28;5.83;;;4.93;;
2476;SDS011;1249;51.270;6.756;2023-04-09T10:03:55;6.73;;;5.97;;
2476;SDS011;1249;51.270;6.756;2023-04-09T10:06:23;9.13;;;5.40;;
2476;SDS011;1249;51.270;6.756;2023-04-09T10:08:51;4.27;;;3.87;;
2476;SDS011;1249;51.270;6.756;2023-04-09T10:11:31;8.60;;;7.80;;
2476;SDS011;1249;51.270;6.756;2023-04-09T10:13:59;7.27;;;5.90;;
2476;SDS011;1249;51.270;6.756;2023-04-09T10:16:26;6.07;;;5.40;;
2476;SDS011;1249;51.270;6.756;2023-04-09T10:18:55;6.90;;;5.90;;
2476;SDS011;1249;51.270;6.756;2023-04-09T10:22:23;6.13;;;5.60;;
2476;SDS011;1249;51.270;6.756;2023-04-09T10:24:18;6.47;;;5.87;;
2476;SDS011;1249;51.270;6.756;2023-04-09T10:26:43;4.57;;;4.20;;
2476;SDS011;1249;51.270;6.756;2023-04-09T10:29:10;5.87;;;5.37;;
2476;SDS011;1249;51.270;6.756;2023-04-09T10:31:47;4.70;;;4.27;;
2476;SDS011;1249;51.270;6.756;2023-04-09T10:34:23;4.00;;;3.60;;
2476;SDS011;1249;51.270;6.756;2023-04-09T10:36:54;5.23;;;4.60;;
2476;SDS011;1249;51.270;6.756;2023-04-09T10:39:27;7.97;;;5.90;;
2476;SDS011;1249;51.270;6.756;2023-04-09T10:42:00;5.77;;;5.27;;
2476;SDS011;1249;51.270;6.756;2023-04-09T10:44:31;8.00;;;5.80;;
2476;SDS011;1249;51.270;6.756;2023-04-09T10:46:59;4.83;;;4.43;;
2476;SDS011;1249;51.270;6.756;2023-04-09T10:49:25;7.07;;;6.40;;
2476;SDS011;1249;51.270;6.756;2023-04-09T10:52:10;6.20;;;5.57;;
2476;SDS011;1249;51.270;6.756;2023-04-09T10:57:23;6.23;;;5.40;;
2476;SDS011;1249;51.270;6.756;2023-04-09T10:59:51;5.43;;;4.93;;
2476;SDS011;1249;51.270;6.756;2023-04-09T11:05:18;5.43;;;4.90;;
2476;SDS011;1249;51.270;6.756;2023-04-09T11:08:07;6.33;;;5.30;;
2476;SDS011;1249;51.270;6.756;2023-04-09T11:10:41;12.10;;;10.90;;
2476;SDS011;1249;51.270;6.756;2023-04-09T11:13:15;6.20;;;5.17;;
2476;SDS011;1249;51.270;6.756;2023-04-09T11:15:42;6.40;;;5.70;;
2476;SDS011;1249;51.270;6.756;2023-04-09T11:18:12;7.23;;;6.40;;
2476;SDS011;1249;51.270;6.756;2023-04-09T11:20:39;7.33;;;5.93;;
2476;SDS011;1249;51.270;6.756;2023-04-09T11:23:05;5.77;;;5.10;;
2476;SDS011;1249;51.270;6.756;2023-04-09T11:25:31;5.97;;;5.37;;
2476;SDS011;1249;51.270;6.756;2023-04-09T11:27:58;5.73;;;5.20;;
2476;SDS011;1249;51.270;6.756;2023-04-09T11:30:26;6.07;;;4.70;;
2476;SDS011;1249;51.270;6.756;2023-04-09T11:32:52;5.20;;;4.70;;
2476;SDS011;1249;51.270;6.756;2023-04-09T11:35:19;5.63;;;5.03;;
2476;SDS011;1249;51.270;6.756;2023-04-09T11:37:46;6.73;;;5.13;;
2476;SDS011;1249;51.270;6.756;2023-04-09T11:40:13;4.90;;;4.43;;
2476;SDS011;1249;51.270;6.756;2023-04-09T11:42:40;5.73;;;4.80;;
2476;SDS011;1249;51.270;6.756;2023-04-09T11:45:07;6.40;;;5.77;;
2476;SDS011;1249;51.270;6.756;2023-04-09T11:47:35;14.50;;;13.13;;
2476;SDS011;1249;51.270;6.756;2023-04-09T11:50:01;9.03;;;8.13;;
2476;SDS011;1249;51.270;6.756;2023-04-09T11:52:27;6.73;;;6.10;;
2476;SDS011;1249;51.270;6.756;2023-04-09T11:54:58;6.10;;;5.17;;
2476;SDS011;1249;51.270;6.756;2023-04-09T11:57:34;5.90;;;5.37;;
2476;SDS011;1249;51.270;6.756;2023-04-09T12:00:08;10.33;;;9.33;;
2476;SDS011;1249;51.270;6.756;2023-04-09T12:02:38;6.93;;;6.27;;
2476;SDS011;1249;51.270;6.756;2023-04-09T12:05:22;10.83;;;9.73;;
2476;SDS011;1249;51.270;6.756;2023-04-09T12:07:50;7.77;;;6.50;;
2476;SDS011;1249;51.270;6.756;2023-04-09T12:10:16;11.93;;;10.90;;
2476;SDS011;1249;51.270;6.756;2023-04-09T12:12:42;7.53;;;6.57;;
2476;SDS011;1249;51.270;6.756;2023-04-09T12:15:17;17.17;;;15.70;;
2476;SDS011;1249;51.270;6.756;2023-04-09T12:17:45;7.40;;;6.60;;
2476;SDS011;1249;51.270;6.756;2023-04-09T12:20:13;12.30;;;11.00;;
2476;SDS011;1249;51.270;6.756;2023-04-09T12:22:50;13.27;;;11.40;;
2476;SDS011;1249;51.270;6.756;2023-04-09T12:25:15;6.40;;;5.87;;
2476;SDS011;1249;51.270;6.756;2023-04-09T12:27:41;6.93;;;6.23;;
2476;SDS011;1249;51.270;6.756;2023-04-09T12:30:07;7.20;;;5.67;;
2476;SDS011;1249;51.270;6.756;2023-04-09T12:32:34;7.83;;;7.00;;
2476;SDS011;1249;51.270;6.756;2023-04-09T12:35:03;7.07;;;6.37;;
2476;SDS011;1249;51.270;6.756;2023-04-09T12:55:42;6.87;;;6.27;;
2476;SDS011;1249;51.270;6.756;2023-04-09T12:58:25;9.80;;;8.50;;
2476;SDS011;1249;51.270;6.756;2023-04-09T13:00:51;8.60;;;6.50;;
2476;SDS011;1249;51.270;6.756;2023-04-09T13:03:18;7.60;;;6.67;;
2476;SDS011;1249;51.270;6.756;2023-04-09T13:06:20;6.77;;;6.20;;
2476;SDS011;1249;51.270;6.756;2023-04-09T13:10:09;7.87;;;7.17;;
2476;SDS011;1249;51.270;6.756;2023-04-09T13:20:48;6.23;;;5.37;;
2476;SDS011;1249;51.270;6.756;2023-04-09T13:23:13;7.30;;;6.57;;
2476;SDS011;1249;51.270;6.756;2023-04-09T13:25:39;5.93;;;5.43;;
2476;SDS011;1249;51.270;6.756;2023-04-09T13:28:05;6.23;;;5.70;;
2476;SDS011;1249;51.270;6.756;2023-04-09T13:30:31;8.73;;;7.93;;
2476;SDS011;1249;51.270;6.756;2023-04-09T13:32:56;6.70;;;6.00;;
2476;SDS011;1249;51.270;6.756;2023-04-09T13:35:22;9.00;;;6.27;;
2476;SDS011;1249;51.270;6.756;2023-04-09T13:37:52;6.10;;;5.50;;
2476;SDS011;1249;51.270;6.756;2023-04-09T13:40:18;6.57;;;5.27;;
2476;SDS011;1249;51.270;6.756;2023-04-09T13:42:43;5.53;;;5.13;;
2476;SDS011;1249;51.270;6.756;2023-04-09T13:45:09;5.93;;;5.30;;
2476;SDS011;1249;51.270;6.756;2023-04-09T13:47:35;7.70;;;5.80;;
2476;SDS011;1249;51.270;6.756;2023-04-09T13:50:00;6.60;;;6.00;;
2476;SDS011;1249;51.270;6.756;2023-04-09T13:52:26;6.87;;;5.80;;
2476;SDS011;1249;51.270;6.756;2023-04-09T13:54:51;6.30;;;5.80;;
2476;SDS011;1249;51.270;6.756;2023-04-09T13:57:17;7.63;;;6.97;;
2476;SDS011;1249;51.270;6.756;2023-04-09T13:59:43;6.13;;;5.63;;
2476;SDS011;1249;51.270;6.756;2023-04-09T14:02:09;6.73;;;5.40;;
2476;SDS011;1249;51.270;6.756;2023-04-09T14:04:34;7.60;;;6.27;;
2476;SDS011;1249;51.270;6.756;2023-04-09T14:07:01;6.33;;;5.73;;
2476;SDS011;1249;51.270;6.756;2023-04-09T14:09:26;6.43;;;5.87;;
2476;SDS011;1249;51.270;6.756;2023-04-09T14:11:52;4.97;;;4.43;;
2476;SDS011;1249;51.270;6.756;2023-04-09T14:14:19;4.40;;;3.93;;
2476;SDS011;1249;51.270;6.756;2023-04-09T14:16:45;5.23;;;4.73;;
2476;SDS011;1249;51.270;6.756;2023-04-09T14:19:11;5.97;;;5.37;;
2476;SDS011;1249;51.270;6.756;2023-04-09T14:21:38;5.13;;;4.70;;
2476;SDS011;1249;51.270;6.756;2023-04-09T14:24:04;5.70;;;5.20;;
2476;SDS011;1249;51.270;6.756;2023-04-09T14:26:31;5.73;;;5.17;;
2476;SDS011;1249;51.270;6.756;2023-04-09T14:31:32;6.30;;;5.70;;
2476;SDS011;1249;51.270;6.756;2023-04-09T14:33:58;5.77;;;5.27;;
2476;SDS011;1249;51.270;6.756;2023-04-09T14:36:23;5.63;;;5.13;;
2476;SDS011;1249;51.270;6.756;2023-04-09T14:38:50;5.17;;;4.77;;
2476;SDS011;1249;51.270;6.756;2023-04-09T14:41:16;5.70;;;5.00;;
2476;SDS011;1249;51.270;6.756;2023-04-09T14:43:41;5.77;;;5.27;;
2476;SDS011;1249;51.270;6.756;2023-04-09T14:46:07;5.10;;;4.70;;
2476;SDS011;1249;51.270;6.756;2023-04-09T14:48:36;66.93;;;59.13;;
2476;SDS011;1249;51.270;6.756;2023-04-09T14:51:03;15.37;;;14.13;;
2476;SDS011;1249;51.270;6.756;2023-04-09T14:53:29;9.87;;;8.97;;
2476;SDS011;1249;51.270;6.756;2023-04-09T14:55:55;9.40;;;8.57;;
2476;SDS011;1249;51.270;6.756;2023-04-09T14:58:21;23.57;;;22.03;;
2476;SDS011;1249;51.270;6.756;2023-04-09T15:00:46;6.40;;;5.80;;
2476;SDS011;1249;51.270;6.756;2023-04-09T15:03:12;5.30;;;4.80;;
2476;SDS011;1249;51.270;6.756;2023-04-09T15:05:38;7.60;;;5.80;;
2476;SDS011;1249;51.270;6.756;2023-04-09T15:08:03;5.50;;;5.00;;
2476;SDS011;1249;51.270;6.756;2023-04-09T15:10:29;5.60;;;5.10;;
2476;SDS011;1249;51.270;6.756;2023-04-09T15:12:55;7.07;;;6.50;;
2476;SDS011;1249;51.270;6.756;2023-04-09T15:15:20;6.23;;;5.63;;
2476;SDS011;1249;51.270;6.756;2023-04-09T15:17:46;4.93;;;4.57;;
2476;SDS011;1249;51.270;6.756;2023-04-09T15:20:11;5.63;;;5.13;;
2476;SDS011;1249;51.270;6.756;2023-04-09T15:22:38;5.90;;;5.40;;
2476;SDS011;1249;51.270;6.756;2023-04-09T15:25:04;6.30;;;5.80;;
2476;SDS011;1249;51.270;6.756;2023-04-09T15:27:30;5.03;;;4.57;;
2476;SDS011;1249;51.270;6.756;2023-04-09T15:29:55;6.10;;;5.60;;
2476;SDS011;1249;51.270;6.756;2023-04-09T15:32:21;5.57;;;4.97;;
2476;SDS011;1249;51.270;6.756;2023-04-09T15:34:46;5.73;;;5.20;;
2476;SDS011;1249;51.270;6.756;2023-04-09T15:37:12;5.73;;;5.23;;
2476;SDS011;1249;51.270;6.756;2023-04-09T15:39:37;5.30;;;4.80;;
2476;SDS011;1249;51.270;6.756;2023-04-09T15:42:03;6.53;;;6.00;;
2476;SDS011;1249;51.270;6.756;2023-04-09T15:44:29;6.00;;;5.43;;
2476;SDS011;1249;51.270;6.756;2023-04-09T15:46:54;6.57;;;5.97;;
2476;SDS011;1249;51.270;6.756;2023-04-09T15:49:20;7.23;;;5.43;;
2476;SDS011;1249;51.270;6.756;2023-04-09T15:51:46;6.00;;;5.07;;
2476;SDS011;1249;51.270;6.756;2023-04-09T15:54:12;9.53;;;8.67;;
2476;SDS011;1249;51.270;6.756;2023-04-09T15:56:37;5.57;;;5.13;;